Time;durP1;ratioP1;P1;durP2;ratioP2;P2;SDS_P1;SDS_P2;PMS_P1;PMS_P2;Temp;Humidity;BMP_temperature;BMP_pressure;BME280_temperature;BME280_humidity;BME280_pressure;Samples;Min_cycle;Max_cycle;Signal;HPM_P1;HPM_P2
2021/12/07 00:01:40;;;;;;;40.75;18.20;;;-0.20;99.90;;;;;;5064312;28;20526;-84
2021/12/07 00:04:06;;;;;;;47.03;18.10;;;-0.20;99.90;;;;;;5049457;28;20036;-85
2021/12/07 00:06:32;;;;;;;42.70;16.98;;;-0.20;99.90;;;;;;5069847;28;20154;-85
2021/12/07 00:08:59;;;;;;;38.65;16.58;;;-0.20;99.90;;;;;;5065262;28;20036;-85
2021/12/07 00:11:27;;;;;;;32.22;14.65;;;-0.20;99.90;;;;;;5045468;28;20036;-85
2021/12/07 00:13:56;;;;;;;34.95;14.10;;;-0.10;99.90;;;;;;5067601;28;20029;-85
2021/12/07 00:16:23;;;;;;;40.17;16.27;;;-0.10;99.90;;;;;;5062802;28;20017;-85
2021/12/07 00:18:49;;;;;;;29.33;15.55;;;-0.10;99.90;;;;;;5069680;28;20114;-84
2021/12/07 00:21:17;;;;;;;34.33;13.32;;;0.00;99.90;;;;;;5048106;28;20456;-84
2021/12/07 00:23:43;;;;;;;37.45;14.68;;;0.00;99.90;;;;;;5064467;28;20029;-83
2021/12/07 00:26:11;;;;;;;40.95;16.20;;;0.00;99.90;;;;;;5065090;28;20087;-83
2021/12/07 00:28:38;;;;;;;27.00;14.75;;;0.00;99.90;;;;;;5065242;28;20033;-86
2021/12/07 00:31:15;;;;;;;30.80;14.80;;;0.00;99.90;;;;;;5062703;28;20430;-84
2021/12/07 00:33:51;;;;;;;37.40;15.25;;;0.00;99.90;;;;;;5064416;28;20029;-84
2021/12/07 00:36:17;;;;;;;32.33;11.32;;;0.10;99.90;;;;;;5062254;28;20036;-82
2021/12/07 00:38:43;;;;;;;31.02;14.05;;;0.10;99.90;;;;;;5045640;28;20036;-84
2021/12/07 00:41:10;;;;;;;32.58;13.35;;;0.10;99.90;;;;;;5066272;28;20058;-83
2021/12/07 00:43:35;;;;;;;35.75;12.85;;;0.10;99.90;;;;;;5066753;28;20025;-86
2021/12/07 00:46:02;;;;;;;23.10;11.20;;;0.10;99.90;;;;;;5062379;28;20397;-84
2021/12/07 00:48:29;;;;;;;30.95;11.82;;;0.10;99.90;;;;;;5064408;28;20047;-85
2021/12/07 00:50:57;;;;;;;27.85;12.82;;;0.10;99.90;;;;;;5062145;28;20064;-83
2021/12/07 00:53:24;;;;;;;27.23;11.85;;;0.10;99.90;;;;;;5063540;28;20029;-85
2021/12/07 00:55:52;;;;;;;18.50;9.88;;;0.10;99.90;;;;;;5064786;28;20029;-85
2021/12/07 00:58:22;;;;;;;29.98;13.05;;;0.20;99.90;;;;;;5047966;28;20591;-85
2021/12/07 01:01:13;;;;;;;20.75;9.85;;;0.10;99.90;;;;;;5062412;28;20514;-84
2021/12/07 01:03:40;;;;;;;24.42;10.55;;;0.20;99.90;;;;;;5065062;28;20028;-83
2021/12/07 01:24:54;;;;;;;23.63;9.10;;;0.30;99.90;;;;;;5036946;28;20119;-86
2021/12/07 01:27:20;;;;;;;25.90;9.73;;;0.20;99.90;;;;;;5044697;28;20120;-83
2021/12/07 01:29:55;;;;;;;26.80;10.70;;;0.30;99.90;;;;;;5044640;28;20400;-83
2021/12/07 01:51:18;;;;;;;29.33;12.45;;;0.10;99.90;;;;;;5064089;28;20059;-83
2021/12/07 01:59:33;;;;;;;32.00;12.77;;;0.00;99.90;;;;;;5061492;28;20043;-83
2021/12/07 02:02:08;;;;;;;25.80;10.27;;;-0.10;99.90;;;;;;5064220;28;20032;-82
2021/12/07 02:04:33;;;;;;;33.78;12.32;;;-0.10;99.90;;;;;;5045591;28;20040;-86
2021/12/07 02:06:59;;;;;;;33.70;12.63;;;0.00;99.90;;;;;;5063434;28;20499;-82
2021/12/07 02:09:25;;;;;;;32.65;14.55;;;0.00;99.90;;;;;;5046006;28;20028;-84
2021/12/07 02:11:58;;;;;;;27.13;12.05;;;0.00;99.90;;;;;;5062231;28;20424;-82
2021/12/07 02:14:24;;;;;;;27.80;12.80;;;0.00;99.90;;;;;;5047198;28;20028;-87
2021/12/07 02:17:01;;;;;;;37.60;13.63;;;0.10;99.90;;;;;;5061712;28;20499;-82
2021/12/07 02:19:27;;;;;;;29.63;12.32;;;0.10;99.90;;;;;;5064982;28;20025;-83
2021/12/07 02:21:54;;;;;;;28.00;13.77;;;0.00;99.90;;;;;;5048289;28;20108;-82
2021/12/07 02:24:19;;;;;;;29.90;14.95;;;0.00;99.90;;;;;;5043882;28;20034;-83
2021/12/07 02:26:47;;;;;;;28.35;12.43;;;0.00;99.90;;;;;;5044202;28;20103;-83
2021/12/07 02:29:13;;;;;;;28.77;13.07;;;0.00;99.90;;;;;;5044836;28;20047;-85
2021/12/07 02:31:39;;;;;;;34.38;15.15;;;0.00;99.90;;;;;;5042046;28;20082;-82
2021/12/07 02:34:06;;;;;;;23.75;10.63;;;0.10;99.90;;;;;;5071467;28;20082;-82
2021/12/07 02:36:32;;;;;;;24.10;10.50;;;0.10;99.90;;;;;;5079259;28;20533;-81
2021/12/07 02:38:59;;;;;;;25.35;10.52;;;0.10;99.90;;;;;;5069866;28;20056;-81
2021/12/07 02:41:24;;;;;;;23.58;9.38;;;0.10;99.90;;;;;;5066293;28;20044;-81
2021/12/07 02:43:50;;;;;;;29.58;11.57;;;0.20;99.90;;;;;;5062838;28;20037;-85
2021/12/07 02:46:17;;;;;;;26.40;10.32;;;0.20;99.90;;;;;;5064016;28;20044;-84
2021/12/07 02:48:43;;;;;;;19.73;9.23;;;0.20;99.90;;;;;;5064656;28;20025;-82
2021/12/07 02:51:09;;;;;;;18.98;8.65;;;0.20;99.90;;;;;;5064642;28;20029;-83
2021/12/07 02:53:36;;;;;;;18.35;6.68;;;0.30;99.90;;;;;;5043378;28;20556;-83
2021/12/07 02:56:05;;;;;;;19.83;9.35;;;0.30;99.90;;;;;;5045613;28;20127;-81
2021/12/07 02:58:31;;;;;;;22.23;8.27;;;0.40;99.90;;;;;;5064183;28;20550;-84
2021/12/07 03:01:05;;;;;;;16.75;7.45;;;0.40;99.90;;;;;;5059511;28;20048;-82
2021/12/07 03:03:36;;;;;;;11.80;6.60;;;0.50;99.90;;;;;;5043346;28;20045;-82
2021/12/07 03:27:57;;;;;;;13.18;6.65;;;0.60;99.90;;;;;;5067424;28;20066;-82
2021/12/07 03:30:24;;;;;;;14.48;7.60;;;0.60;99.90;;;;;;5047574;28;20033;-83
2021/12/07 03:32:50;;;;;;;13.93;5.88;;;0.60;99.90;;;;;;5047462;28;20308;-83
2021/12/07 03:35:16;;;;;;;10.20;5.25;;;0.70;99.90;;;;;;5065282;28;20052;-83
2021/12/07 03:37:42;;;;;;;14.05;6.53;;;0.60;99.90;;;;;;5067666;28;20086;-83
2021/12/07 03:40:09;;;;;;;15.82;7.03;;;0.60;99.90;;;;;;5064082;28;20028;-82
2021/12/07 03:42:36;;;;;;;13.65;6.45;;;0.60;99.90;;;;;;5067279;28;20071;-81
2021/12/07 03:45:03;;;;;;;13.90;5.20;;;0.60;99.90;;;;;;5067015;28;20511;-81
2021/12/07 03:47:28;;;;;;;13.77;6.07;;;0.70;99.90;;;;;;5045250;28;20120;-84
2021/12/07 03:49:54;;;;;;;10.35;4.35;;;0.70;99.90;;;;;;5043999;28;20120;-85
2021/12/07 03:52:20;;;;;;;15.27;5.50;;;0.70;99.90;;;;;;5066053;28;20040;-80
2021/12/07 03:54:46;;;;;;;10.32;4.75;;;0.70;99.90;;;;;;5065061;28;20033;-82
2021/12/07 03:57:12;;;;;;;9.93;4.65;;;0.70;99.90;;;;;;5067149;28;20077;-80
2021/12/07 03:59:38;;;;;;;13.07;5.43;;;0.70;99.90;;;;;;5047325;28;20120;-85
2021/12/07 04:02:04;;;;;;;10.63;5.10;;;0.70;99.90;;;;;;5061427;28;20044;-81
2021/12/07 04:04:29;;;;;;;12.50;5.35;;;0.70;99.90;;;;;;5048732;28;20033;-83
2021/12/07 04:06:55;;;;;;;9.40;4.47;;;0.70;99.90;;;;;;5061125;28;20497;-83
2021/12/07 04:09:21;;;;;;;11.30;4.75;;;0.80;99.90;;;;;;5046415;28;20043;-83
2021/12/07 04:11:46;;;;;;;11.57;4.13;;;0.70;99.90;;;;;;5049096;28;20066;-83
2021/12/07 04:14:12;;;;;;;10.43;4.90;;;0.80;99.90;;;;;;5046101;28;20029;-83
2021/12/07 04:16:38;;;;;;;11.60;6.18;;;0.80;99.90;;;;;;5068137;28;20028;-84
2021/12/07 04:19:04;;;;;;;10.52;4.57;;;0.80;99.90;;;;;;5071440;28;20111;-82
2021/12/07 04:21:29;;;;;;;10.48;5.43;;;0.80;99.90;;;;;;5062561;28;20029;-82
2021/12/07 04:23:55;;;;;;;13.00;6.72;;;0.80;99.90;;;;;;5065766;28;20408;-84
2021/12/07 04:26:21;;;;;;;7.45;3.50;;;0.70;99.90;;;;;;5065451;28;20457;-85
2021/12/07 04:28:47;;;;;;;11.15;6.35;;;0.70;99.90;;;;;;5064415;28;20076;-84
2021/12/07 04:31:13;;;;;;;12.35;5.30;;;0.70;99.90;;;;;;5045398;28;20060;-84
2021/12/07 04:33:40;;;;;;;11.15;5.93;;;0.70;99.90;;;;;;5065678;28;20086;-83
2021/12/07 04:36:08;;;;;;;14.35;6.75;;;0.70;99.90;;;;;;5065292;28;20074;-86
2021/12/07 04:38:34;;;;;;;10.35;5.88;;;0.70;99.90;;;;;;5059629;28;20037;-85
2021/12/07 04:41:00;;;;;;;12.55;6.10;;;0.80;99.90;;;;;;5065378;28;20024;-83
2021/12/07 04:43:25;;;;;;;12.77;5.95;;;0.80;99.90;;;;;;5066621;28;20075;-85
2021/12/07 04:59:10;;;;;;;10.07;5.32;;;0.90;99.90;;;;;;5053045;28;20478;-85
2021/12/07 05:01:35;;;;;;;12.35;5.40;;;0.90;99.90;;;;;;5065225;28;20032;-83
2021/12/07 05:04:09;;;;;;;10.88;5.32;;;0.90;99.90;;;;;;5065460;28;20033;-85
2021/12/07 05:06:40;;;;;;;12.25;5.45;;;0.90;99.90;;;;;;5064355;28;20052;-86
2021/12/07 05:09:31;;;;;;;11.63;5.32;;;0.80;99.90;;;;;;5047584;28;20032;-82
2021/12/07 05:14:28;;;;;;;10.35;4.97;;;0.80;99.90;;;;;;5046584;28;20103;-82
2021/12/07 05:17:14;;;;;;;13.60;5.90;;;0.70;99.90;;;;;;5045464;28;20033;-82
2021/12/07 05:38:51;;;;;;;13.52;5.55;;;0.70;99.90;;;;;;5063353;28;20047;-87
2021/12/07 05:41:17;;;;;;;13.40;5.93;;;0.70;99.90;;;;;;5065136;28;20037;-84
2021/12/07 05:43:42;;;;;;;11.70;6.10;;;0.60;99.90;;;;;;5064991;28;20078;-90
2021/12/07 05:46:08;;;;;;;10.95;4.93;;;0.50;99.90;;;;;;5063390;28;20098;-81
2021/12/07 05:48:34;;;;;;;11.73;5.85;;;0.50;99.90;;;;;;5063431;28;20091;-85
2021/12/07 05:51:00;;;;;;;21.30;8.65;;;0.40;99.90;;;;;;5063337;28;20468;-87
2021/12/07 05:53:26;;;;;;;14.13;5.78;;;0.50;99.90;;;;;;5067881;28;20028;-86
2021/12/07 05:55:52;;;;;;;13.05;6.18;;;0.40;99.90;;;;;;5067147;28;20095;-87
2021/12/07 05:58:19;;;;;;;13.50;5.88;;;0.50;99.90;;;;;;5066370;28;20033;-84
2021/12/07 06:00:46;;;;;;;19.30;7.43;;;0.50;99.90;;;;;;5075606;28;20057;-84
2021/12/07 06:03:13;;;;;;;15.57;6.82;;;0.40;99.90;;;;;;5081653;28;20024;-85
2021/12/07 06:05:41;;;;;;;12.15;6.25;;;0.50;99.90;;;;;;5053845;28;20067;-85
2021/12/07 06:08:07;;;;;;;12.27;5.70;;;0.60;99.90;;;;;;5064754;28;20410;-85
2021/12/07 06:10:34;;;;;;;13.80;5.93;;;0.50;99.90;;;;;;5063376;28;20028;-85
2021/12/07 06:13:01;;;;;;;15.55;5.60;;;0.50;99.90;;;;;;5049594;28;20100;-83
2021/12/07 06:15:31;;;;;;;12.88;5.50;;;0.30;99.90;;;;;;5072485;28;20027;-84
2021/12/07 06:17:57;;;;;;;23.02;6.70;;;0.30;99.90;;;;;;5068741;28;20037;-88
2021/12/07 06:20:23;;;;;;;16.70;5.97;;;0.30;99.90;;;;;;5055623;28;20094;-86
2021/12/07 06:22:48;;;;;;;12.82;5.82;;;0.40;99.90;;;;;;5061331;28;20037;-87
2021/12/07 06:25:14;;;;;;;14.27;5.40;;;0.40;99.90;;;;;;5066791;28;20040;-86
2021/12/07 06:27:41;;;;;;;12.57;5.82;;;0.40;99.90;;;;;;5065919;28;20033;-86
2021/12/07 06:30:09;;;;;;;12.80;5.30;;;0.50;99.90;;;;;;5063443;28;20054;-86
2021/12/07 06:32:34;;;;;;;11.45;4.63;;;0.50;99.90;;;;;;5062020;28;20028;-88
2021/12/07 06:35:00;;;;;;;8.93;3.67;;;0.50;99.90;;;;;;5066319;28;20392;-83
2021/12/07 06:37:26;;;;;;;12.32;4.30;;;0.50;99.90;;;;;;5061674;28;20076;-86
2021/12/07 06:39:51;;;;;;;13.27;5.43;;;0.60;99.90;;;;;;5047134;28;20041;-82
2021/12/07 06:42:17;;;;;;;8.55;4.85;;;0.60;99.90;;;;;;5031030;28;20103;-80
2021/12/07 06:44:43;;;;;;;11.07;4.75;;;0.60;99.90;;;;;;5045499;28;20120;-85
2021/12/07 06:47:09;;;;;;;9.00;4.32;;;0.70;99.90;;;;;;5061495;28;20029;-83
2021/12/07 06:49:34;;;;;;;10.93;4.50;;;0.70;99.90;;;;;;5060814;28;20472;-82
2021/12/07 06:52:02;;;;;;;15.93;4.72;;;0.70;99.90;;;;;;5058142;28;20551;-82
2021/12/07 06:54:28;;;;;;;9.13;4.88;;;0.70;99.90;;;;;;5058221;28;20033;-80
2021/12/07 06:56:54;;;;;;;10.07;4.15;;;0.70;99.90;;;;;;5059841;28;20024;-78
2021/12/07 06:59:20;;;;;;;10.60;4.63;;;0.70;99.90;;;;;;5063547;28;20037;-79
2021/12/07 07:01:47;;;;;;;11.40;5.22;;;0.70;99.90;;;;;;5061702;28;20113;-82
2021/12/07 07:04:14;;;;;;;10.85;4.78;;;0.80;99.90;;;;;;5063119;28;20396;-83
2021/12/07 07:06:41;;;;;;;14.98;4.50;;;0.70;99.90;;;;;;5060333;28;20120;-81
2021/12/07 07:09:07;;;;;;;9.35;5.13;;;0.80;99.90;;;;;;5055859;28;20104;-79
2021/12/07 07:11:34;;;;;;;9.95;4.00;;;0.80;99.90;;;;;;5043045;28;20032;-78
2021/12/07 07:14:01;;;;;;;10.32;4.07;;;0.90;99.90;;;;;;5062234;28;20025;-79
2021/12/07 07:16:27;;;;;;;10.25;3.95;;;1.00;99.90;;;;;;5060781;28;20017;-80
2021/12/07 07:18:53;;;;;;;11.32;4.57;;;1.00;99.90;;;;;;5063065;28;20086;-84
2021/12/07 07:21:20;;;;;;;12.82;5.55;;;1.00;99.90;;;;;;5056628;28;20414;-86
2021/12/07 07:23:46;;;;;;;7.95;4.43;;;0.90;99.90;;;;;;5060993;28;20111;-86
2021/12/07 07:26:11;;;;;;;10.15;4.93;;;0.90;99.90;;;;;;5062377;28;20527;-84
2021/12/07 07:28:38;;;;;;;8.27;4.47;;;0.80;99.90;;;;;;5065277;28;20399;-86
2021/12/07 07:31:06;;;;;;;8.85;5.38;;;0.90;99.90;;;;;;5057327;28;20029;-85
2021/12/07 07:33:32;;;;;;;9.98;4.50;;;0.90;99.90;;;;;;5065775;28;20024;-86
2021/12/07 07:35:58;;;;;;;10.65;5.55;;;0.90;99.90;;;;;;5059958;28;20029;-86
2021/12/07 07:38:23;;;;;;;8.07;3.97;;;0.90;99.90;;;;;;5046361;28;20561;-86
2021/12/07 07:40:49;;;;;;;12.48;6.07;;;0.90;99.90;;;;;;5062423;28;20029;-86
2021/12/07 07:43:17;;;;;;;7.85;4.32;;;0.80;99.90;;;;;;5061057;28;20032;-84
2021/12/07 07:45:44;;;;;;;20.67;4.63;;;0.80;99.90;;;;;;5058553;28;20049;-86
2021/12/07 07:48:10;;;;;;;10.35;5.43;;;0.80;99.90;;;;;;5045385;28;20040;-87
2021/12/07 07:50:35;;;;;;;8.60;4.40;;;0.80;99.90;;;;;;5062183;28;20024;-84
2021/12/07 07:53:01;;;;;;;16.48;4.88;;;0.90;99.90;;;;;;5062361;28;20025;-83
2021/12/07 07:55:27;;;;;;;9.63;5.00;;;1.00;99.90;;;;;;5045267;28;20032;-84
2021/12/07 07:57:53;;;;;;;10.43;4.80;;;1.00;99.90;;;;;;5059495;28;20039;-88
2021/12/07 08:00:21;;;;;;;14.10;4.63;;;1.10;99.90;;;;;;5064099;28;20060;-87
2021/12/07 08:02:47;;;;;;;11.23;3.97;;;1.10;99.90;;;;;;5061768;28;20032;-87
2021/12/07 08:05:13;;;;;;;11.27;3.67;;;1.10;99.90;;;;;;5056133;28;20033;-85
2021/12/07 08:07:39;;;;;;;9.43;4.97;;;1.10;99.90;;;;;;5044331;28;20084;-85
2021/12/07 08:10:08;;;;;;;12.70;4.20;;;1.20;99.90;;;;;;5055725;28;20035;-89
2021/12/07 08:12:34;;;;;;;9.88;4.03;;;1.10;99.90;;;;;;5065816;28;20024;-88
2021/12/07 08:15:00;;;;;;;12.60;5.80;;;1.10;99.90;;;;;;5048092;28;20079;-88
2021/12/07 08:17:25;;;;;;;11.48;5.05;;;1.20;99.90;;;;;;5066382;28;20462;-88
2021/12/07 08:19:51;;;;;;;8.57;3.17;;;1.10;99.90;;;;;;5035239;28;20040;-86
2021/12/07 08:22:17;;;;;;;9.70;4.00;;;1.10;99.90;;;;;;5061067;28;20116;-86
2021/12/07 08:24:43;;;;;;;9.40;4.07;;;1.10;99.90;;;;;;5045852;28;20086;-89
2021/12/07 08:27:08;;;;;;;8.93;4.35;;;1.10;99.90;;;;;;5063440;28;20503;-88
2021/12/07 08:29:34;;;;;;;9.98;4.15;;;1.10;99.90;;;;;;5051087;28;20431;-86
2021/12/07 08:32:00;;;;;;;15.65;5.47;;;1.20;99.90;;;;;;5032108;28;20037;-81
2021/12/07 08:34:26;;;;;;;8.40;4.68;;;1.30;99.90;;;;;;5045048;28;20103;-82
2021/12/07 08:36:52;;;;;;;10.35;4.10;;;1.40;99.90;;;;;;5065261;28;20148;-80
2021/12/07 08:39:17;;;;;;;9.20;4.20;;;1.40;99.90;;;;;;5062430;28;20033;-79
2021/12/07 08:41:43;;;;;;;8.63;3.55;;;1.40;99.90;;;;;;5062906;28;20113;-82
2021/12/07 08:44:09;;;;;;;7.18;3.40;;;1.40;99.90;;;;;;5062722;28;20034;-84
2021/12/07 08:46:35;;;;;;;9.85;4.22;;;1.40;99.90;;;;;;5060977;28;20035;-83
2021/12/07 08:49:01;;;;;;;7.22;3.75;;;1.40;99.90;;;;;;5065362;28;20029;-86
2021/12/07 08:51:27;;;;;;;10.80;4.25;;;1.50;99.90;;;;;;5063543;28;20031;-84
2021/12/07 08:53:59;;;;;;;8.57;3.60;;;1.50;99.90;;;;;;5063020;28;20029;-84
2021/12/07 09:01:53;;;;;;;10.23;4.47;;;1.60;99.90;;;;;;5065539;28;20044;-84
2021/12/07 09:04:20;;;;;;;7.88;3.63;;;1.60;99.90;;;;;;5060624;28;20025;-85
2021/12/07 09:06:47;;;;;;;12.25;3.83;;;1.60;99.90;;;;;;5065537;28;20040;-85
2021/12/07 09:09:14;;;;;;;7.18;4.32;;;1.50;99.90;;;;;;5043688;28;20107;-85
2021/12/07 09:11:41;;;;;;;11.07;5.07;;;1.60;99.90;;;;;;5063011;28;20411;-88
2021/12/07 09:14:10;;;;;;;8.57;3.45;;;1.60;99.90;;;;;;5060442;28;20052;-84
2021/12/07 09:16:36;;;;;;;9.77;3.80;;;1.60;99.90;;;;;;5040576;28;20070;-83
2021/12/07 09:19:03;;;;;;;12.32;4.22;;;1.70;99.90;;;;;;5068304;28;20426;-83
2021/12/07 09:21:28;;;;;;;10.52;3.95;;;1.80;99.90;;;;;;5061480;28;20079;-84
2021/12/07 09:23:54;;;;;;;10.43;4.00;;;1.80;99.90;;;;;;5062227;28;20484;-82
2021/12/07 09:26:20;;;;;;;8.15;3.08;;;1.70;99.90;;;;;;5081464;28;20017;-80
2021/12/07 09:28:47;;;;;;;8.85;3.83;;;1.70;99.90;;;;;;5069229;28;20021;-80
2021/12/07 09:31:12;;;;;;;7.88;2.95;;;1.70;99.90;;;;;;5063622;28;20032;-86
2021/12/07 09:33:41;;;;;;;9.70;4.22;;;1.80;99.90;;;;;;5049876;28;20032;-85
2021/12/07 09:36:07;;;;;;;11.10;4.05;;;1.90;99.90;;;;;;5045869;28;20052;-82
2021/12/07 09:38:33;;;;;;;6.57;2.72;;;1.90;99.90;;;;;;5054730;28;20389;-83
2021/12/07 09:41:01;;;;;;;7.90;3.10;;;1.90;99.90;;;;;;5056611;28;20032;-82
2021/12/07 09:43:27;;;;;;;9.90;3.78;;;1.90;99.90;;;;;;5048912;28;20484;-83
2021/12/07 09:45:52;;;;;;;10.95;4.72;;;2.00;99.90;;;;;;5045452;28;20087;-84
2021/12/07 09:48:18;;;;;;;6.72;3.22;;;2.00;99.90;;;;;;5064292;28;20043;-85
2021/12/07 09:50:47;;;;;;;8.32;3.45;;;2.10;99.90;;;;;;5047241;28;20036;-83
2021/12/07 09:53:14;;;;;;;6.55;2.90;;;2.10;99.90;;;;;;5066145;28;20024;-82
2021/12/07 09:55:41;;;;;;;8.95;2.60;;;2.20;99.90;;;;;;5043051;28;20033;-81
2021/12/07 09:58:07;;;;;;;9.00;2.88;;;2.30;99.90;;;;;;5060054;28;20099;-81
2021/12/07 10:00:35;;;;;;;6.82;3.20;;;2.20;99.90;;;;;;5067016;28;20476;-82
2021/12/07 10:03:01;;;;;;;7.43;2.58;;;2.40;99.90;;;;;;5065473;28;20033;-81
2021/12/07 10:05:30;;;;;;;6.78;2.80;;;2.30;99.90;;;;;;5041590;28;20033;-81
2021/12/07 10:07:57;;;;;;;7.70;2.53;;;2.10;99.90;;;;;;5062693;28;20048;-83
2021/12/07 10:10:26;;;;;;;8.30;3.55;;;2.10;99.90;;;;;;5055822;28;20138;-88
2021/12/07 10:12:52;;;;;;;8.95;3.20;;;2.10;99.90;;;;;;5067749;28;20021;-86
2021/12/07 10:15:19;;;;;;;9.82;3.78;;;2.30;99.90;;;;;;5063875;28;20369;-84
2021/12/07 10:18:02;;;;;;;5.05;2.63;;;2.50;99.90;;;;;;5045214;28;20036;-84
2021/12/07 10:20:43;;;;;;;7.57;3.08;;;2.50;99.90;;;;;;5045909;28;20025;-84
2021/12/07 10:23:17;;;;;;;9.50;3.05;;;2.40;99.90;;;;;;5066565;28;20079;-85
2021/12/07 10:25:47;;;;;;;6.10;2.45;;;2.40;99.90;;;;;;5062558;28;20032;-82
2021/12/07 10:28:32;;;;;;;14.60;3.72;;;2.20;99.90;;;;;;5059414;28;20052;-85
2021/12/07 10:31:26;;;;;;;8.10;2.95;;;2.00;99.90;;;;;;5064544;28;20500;-88
2021/12/07 10:33:54;;;;;;;29.17;3.80;;;2.10;99.90;;;;;;5033798;28;20484;-83
2021/12/07 10:36:43;;;;;;;6.47;3.33;;;2.30;99.90;;;;;;5045587;28;20029;-80
2021/12/07 10:39:17;;;;;;;8.18;3.00;;;2.60;99.90;;;;;;5060665;28;20070;-84
2021/12/07 10:41:58;;;;;;;6.82;2.92;;;2.70;99.90;;;;;;5062035;28;20035;-82
2021/12/07 10:44:31;;;;;;;;;;;2.70;99.90;;;;;;5045450;28;20033;-84
2021/12/07 10:47:00;;;;;;;8.77;2.78;;;2.40;99.90;;;;;;5042765;28;19916;-84
2021/12/07 10:49:29;;;;;;;6.78;2.55;;;2.30;99.90;;;;;;5065724;28;20024;-84
2021/12/07 10:52:14;;;;;;;13.25;3.70;;;2.30;99.90;;;;;;5059707;28;20506;-85
2021/12/07 10:54:45;;;;;;;6.93;3.15;;;2.20;99.90;;;;;;5065954;28;20021;-85
2021/12/07 10:57:18;;;;;;;6.20;2.75;;;2.30;99.90;;;;;;5061374;28;20021;-85
2021/12/07 11:00:07;;;;;;;7.40;2.83;;;2.40;99.90;;;;;;5061048;28;20056;-85
2021/12/07 11:02:36;;;;;;;9.40;2.35;;;2.50;99.90;;;;;;5061730;28;20504;-85
2021/12/07 11:05:05;;;;;;;8.70;2.95;;;2.50;99.90;;;;;;5058962;28;20511;-86
2021/12/07 11:07:31;;;;;;;6.22;2.63;;;2.40;99.90;;;;;;5069607;28;20033;-83
2021/12/07 11:10:10;;;;;;;7.05;2.33;;;2.30;99.90;;;;;;5062430;28;20037;-88
2021/12/07 11:13:09;;;;;;;5.55;2.13;;;2.30;99.90;;;;;;5059610;28;20056;-80
2021/12/07 11:15:41;;;;;;;8.85;2.50;;;2.20;99.90;;;;;;5060775;28;20039;-85
2021/12/07 11:18:10;;;;;;;8.95;3.25;;;2.10;99.90;;;;;;5067350;28;20039;-87
2021/12/07 11:20:37;;;;;;;6.22;2.70;;;2.10;99.90;;;;;;5062306;28;20032;-83
2021/12/07 11:23:22;;;;;;;8.35;2.92;;;2.20;99.90;;;;;;5061868;28;20388;-83
2021/12/07 11:31:35;;;;;;;7.82;2.75;;;2.40;99.90;;;;;;5061769;28;20518;-85
2021/12/07 11:34:12;;;;;;;5.65;2.03;;;2.30;99.90;;;;;;5044550;28;20093;-83
2021/12/07 11:36:52;;;;;;;12.65;2.65;;;2.30;99.90;;;;;;5058328;28;20400;-83
2021/12/07 11:39:27;;;;;;;6.40;2.00;;;2.30;99.90;;;;;;5061163;28;20025;-85
2021/12/07 11:42:00;;;;;;;6.65;1.80;;;2.30;99.90;;;;;;5062706;28;20028;-84
2021/12/07 11:44:28;;;;;;;5.63;2.33;;;2.50;99.90;;;;;;5046958;28;20036;-84
2021/12/07 11:46:57;;;;;;;4.68;2.22;;;2.50;99.90;;;;;;5056465;28;20036;-84
2021/12/07 11:49:25;;;;;;;11.13;2.60;;;2.60;99.90;;;;;;5067844;28;20037;-84
2021/12/07 11:51:54;;;;;;;6.03;1.95;;;2.60;99.90;;;;;;5045705;28;20021;-85
2021/12/07 11:54:26;;;;;;;8.07;1.80;;;2.60;99.90;;;;;;5049931;28;20037;-85
2021/12/07 11:56:52;;;;;;;4.95;2.00;;;2.60;99.90;;;;;;5062611;28;20033;-85
2021/12/07 11:59:18;;;;;;;3.67;2.08;;;2.60;99.90;;;;;;5050903;28;20033;-85
2021/12/07 12:01:46;;;;;;;4.53;3.15;;;2.60;99.90;;;;;;5067098;28;20162;-84
2021/12/07 12:04:14;;;;;;;4.82;2.60;;;2.60;99.90;;;;;;5063294;28;20035;-83
2021/12/07 12:06:42;;;;;;;6.50;2.80;;;2.70;99.90;;;;;;5063795;28;20028;-79
2021/12/07 12:09:09;;;;;;;5.10;2.65;;;2.80;99.90;;;;;;5049358;28;20127;-75
2021/12/07 12:11:41;;;;;;;7.57;3.25;;;2.90;99.90;;;;;;5066012;28;20106;-79
2021/12/07 12:14:27;;;;;;;9.00;3.08;;;2.90;99.90;;;;;;5063620;28;20020;-78
2021/12/07 12:16:56;;;;;;;8.40;3.58;;;3.00;99.90;;;;;;5069276;28;20112;-77
2021/12/07 12:19:42;;;;;;;6.72;3.17;;;3.00;99.90;;;;;;5066786;28;20487;-78
2021/12/07 12:22:32;;;;;;;5.55;2.25;;;3.00;99.90;;;;;;5065532;28;20032;-79
2021/12/07 12:25:07;;;;;;;6.70;2.60;;;3.00;99.90;;;;;;5043999;28;20111;-79
2021/12/07 12:27:34;;;;;;;6.18;2.70;;;3.00;99.90;;;;;;5066161;28;20029;-79
2021/12/07 12:30:29;;;;;;;8.27;2.75;;;3.10;99.90;;;;;;5063390;28;20025;-79
2021/12/07 12:33:02;;;;;;;7.95;3.38;;;3.20;99.90;;;;;;5036808;28;20543;-81
2021/12/07 12:35:38;;;;;;;7.13;3.25;;;3.10;99.90;;;;;;5062836;28;20112;-78
2021/12/07 12:38:14;;;;;;;9.00;3.25;;;3.20;99.90;;;;;;5065451;28;20090;-82
2021/12/07 12:40:40;;;;;;;8.77;3.10;;;3.10;99.90;;;;;;5065982;28;20025;-76
2021/12/07 12:43:05;;;;;;;7.95;3.28;;;3.00;99.90;;;;;;5069733;28;20025;-78
2021/12/07 12:45:36;;;;;;;8.88;3.33;;;3.00;99.90;;;;;;5070049;28;20054;-77
2021/12/07 12:48:05;;;;;;;9.00;3.10;;;3.10;99.90;;;;;;5065840;28;20064;-75
2021/12/07 12:50:35;;;;;;;7.20;2.72;;;3.10;99.90;;;;;;5065004;28;20050;-76
2021/12/07 12:53:09;;;;;;;13.13;3.25;;;3.10;99.90;;;;;;5065333;28;20487;-78
2021/12/07 12:55:48;;;;;;;15.02;3.53;;;3.30;99.90;;;;;;5067619;28;20040;-77
2021/12/07 12:58:30;;;;;;;5.00;2.90;;;3.30;99.90;;;;;;5064566;28;20558;-76
2021/12/07 13:01:14;;;;;;;10.52;5.20;;;3.40;99.90;;;;;;5065005;28;20711;-76
2021/12/07 13:04:02;;;;;;;6.55;3.00;;;3.50;99.90;;;;;;5062703;28;20020;-77
2021/12/07 13:06:31;;;;;;;9.63;2.58;;;3.60;99.90;;;;;;5061299;28;20037;-76
2021/12/07 13:09:00;;;;;;;6.57;3.55;;;3.60;99.90;;;;;;5064567;28;20159;-76
2021/12/07 13:12:02;;;;;;;8.20;3.05;;;3.90;99.90;;;;;;5065227;28;20269;-76
2021/12/07 13:14:36;;;;;;;5.30;2.83;;;3.90;99.90;;;;;;5051629;28;20442;-76
2021/12/07 13:17:15;;;;;;;12.30;3.50;;;3.90;99.90;;;;;;5063295;28;20071;-78
2021/12/07 13:20:07;;;;;;;5.90;2.55;;;3.70;99.90;;;;;;5071928;28;20084;-78
2021/12/07 13:22:45;;;;;;;5.68;2.55;;;3.40;99.90;;;;;;5075990;28;20020;-78
2021/12/07 13:25:28;;;;;;;7.00;2.47;;;3.40;99.90;;;;;;5065146;28;20155;-79
2021/12/07 13:28:02;;;;;;;6.22;2.75;;;3.40;99.90;;;;;;5063106;28;20028;-77
2021/12/07 13:30:49;;;;;;;9.38;3.28;;;3.70;99.90;;;;;;5060796;28;20029;-79
2021/12/07 13:33:29;;;;;;;9.27;2.33;;;3.80;99.90;;;;;;5060606;28;20063;-77
2021/12/07 13:35:55;;;;;;;4.72;2.78;;;3.70;99.90;;;;;;5059297;28;20025;-78
2021/12/07 13:38:24;;;;;;;4.45;2.60;;;3.40;99.90;;;;;;5063548;28;20082;-78
2021/12/07 13:41:14;;;;;;;5.90;2.55;;;3.30;99.90;;;;;;5052392;28;20038;-77
2021/12/07 13:43:45;;;;;;;5.20;2.65;;;3.10;99.90;;;;;;5051245;28;20048;-78
2021/12/07 13:46:17;;;;;;;11.60;2.60;;;3.00;99.90;;;;;;5058640;28;20124;-76
2021/12/07 13:48:46;;;;;;;8.93;3.25;;;3.00;99.90;;;;;;5056136;28;20028;-76
2021/12/07 13:51:14;;;;;;;5.38;2.47;;;2.90;99.90;;;;;;5063204;28;20016;-77
2021/12/07 13:53:42;;;;;;;4.85;3.10;;;2.80;99.90;;;;;;5065666;28;20055;-76
2021/12/07 13:56:09;;;;;;;6.85;2.42;;;2.80;99.90;;;;;;5061359;28;20276;-76
2021/12/07 13:58:58;;;;;;;7.53;2.97;;;2.70;99.90;;;;;;5065490;28;20052;-76
2021/12/07 14:01:26;;;;;;;4.63;2.38;;;2.60;99.90;;;;;;5061085;28;20046;-87
2021/12/07 14:03:52;;;;;;;5.80;2.15;;;2.60;99.90;;;;;;5067236;28;20033;-88
2021/12/07 14:06:19;;;;;;;7.88;2.72;;;2.60;99.90;;;;;;5067271;28;20089;-89
2021/12/07 14:08:45;;;;;;;4.13;2.03;;;2.60;99.90;;;;;;5066868;28;20037;-86
2021/12/07 14:11:15;;;;;;;7.63;2.17;;;2.50;99.90;;;;;;5061958;28;20499;-87
2021/12/07 14:13:46;;;;;;;6.40;2.53;;;2.50;99.90;;;;;;5057509;28;20037;-86
2021/12/07 14:16:15;;;;;;;10.95;2.30;;;2.50;99.90;;;;;;5061874;28;20538;-88
2021/12/07 14:18:45;;;;;;;4.68;2.05;;;2.50;99.90;;;;;;5067198;28;20040;-87
2021/12/07 14:21:11;;;;;;;5.30;2.10;;;2.40;99.90;;;;;;5029412;28;20052;-85
2021/12/07 14:23:45;;;;;;;7.72;2.63;;;2.40;99.90;;;;;;5059959;28;20500;-86
2021/12/07 14:26:17;;;;;;;8.20;2.80;;;2.20;99.90;;;;;;5059427;28;20032;-86
2021/12/07 14:28:50;;;;;;;6.43;1.95;;;2.30;99.90;;;;;;5061177;28;20115;-85
2021/12/07 14:31:16;;;;;;;5.20;2.17;;;2.30;99.90;;;;;;5044722;28;20028;-85
2021/12/07 14:33:44;;;;;;;6.70;2.03;;;2.30;99.90;;;;;;5062990;28;20025;-85
2021/12/07 14:36:12;;;;;;;9.10;2.33;;;2.10;99.90;;;;;;5063845;28;20028;-87
2021/12/07 14:38:38;;;;;;;5.82;1.85;;;2.00;99.90;;;;;;5061844;28;20083;-85
2021/12/07 14:41:08;;;;;;;5.80;1.88;;;2.10;99.90;;;;;;5064203;28;20037;-84
2021/12/07 14:43:35;;;;;;;8.23;1.85;;;2.00;99.90;;;;;;5055833;28;20036;-85
2021/12/07 14:46:03;;;;;;;5.38;1.92;;;1.90;99.90;;;;;;5059836;28;20076;-84
2021/12/07 14:48:28;;;;;;;4.05;1.80;;;2.00;99.90;;;;;;5064897;28;20093;-85
2021/12/07 14:51:00;;;;;;;4.07;1.95;;;1.90;99.90;;;;;;5039398;28;20492;-85
2021/12/07 14:53:57;;;;;;;15.52;2.45;;;1.70;99.90;;;;;;5065448;28;20095;-86